Orion Explorer — LNDT — position and weather

sailwx.info

Track history (hours):
 
Tides and Currents Weather Stations Pressure Air Temp Water Temp Dewpoint Dewpoint Depression Visibility Wind Speed Wind Dir Waves Ship Positions

Orion Explorer

Last reported at 2015-Jan-23 07:20 UTC. Time now 2015-Jan-28 16:17 UTC.
Position N 70°30' E 022°47'.

Length 59 m; draft 4.5 m.

Type: Cargo ship. MMSI: 259496000.

Date/timePositionNaut miles runAvg speedWind from/ knotsBaromVisibWave heightAir tempDewpointWater temp
2015-Jan-23 07:20N 70°30' E 022°47'810.9
2015-Jan-23 06:33N 70°33' E 023°10'9 9.3
2015-Jan-23 05:33N 70°37' E 023°36'5 4.5
2015-Jan-23 04:33N 70°32' E 023°33'6 5.8
2015-Jan-23 03:33N 70°38' E 023°29'4 4.0
2015-Jan-23 02:33N 70°34' E 023°24'3 2.5
2015-Jan-23 01:33N 70°33' E 023°17'3 2.9
2015-Jan-23 00:33N 70°33' E 023°08'96 3.7
2015-Jan-21 22:34N 69°44' E 019°05'0 9.4
2015-Jan-21 22:33N 69°44' E 019°05'3 3.4
2015-Jan-21 21:33N 69°41' E 019°01'10 9.4
2015-Jan-21 20:32N 69°33' E 018°45'  
2015-Jan-18 03:32N 69°37' E 018°55'9810.9
2015-Jan-17 18:33N 70°31' E 022°57'1111.2
2015-Jan-17 17:33N 70°39' E 023°21'  
2015-Jan-15 06:33N 70°43' E 023°35'1110.4
2015-Jan-15 05:32N 70°32' E 023°33'4 4.2
2015-Jan-15 04:33N 70°36' E 023°35'8 7.7
2015-Jan-15 03:33N 70°33' E 023°14'2 2.3
2015-Jan-15 02:31N 70°33' E 023°07'1310.7
2015-Jan-15 01:18N 70°28' E 022°31'81 4.3
2015-Jan-14 06:26N 69°45' E 019°08'1010.9
2015-Jan-14 05:33N 69°37' E 018°55'  
Track history (hours):
 
Tides and Currents Weather Stations Pressure Air Temp Water Temp Dewpoint Dewpoint Depression Visibility Wind Speed Wind Dir Waves Ship Positions

Orion Explorer

Last reported at 2015-Jan-23 07:20 UTC. Time now 2015-Jan-28 16:17 UTC.
Position N 70°30' E 022°47'.

Length 59 m; draft 4.5 m.

Type: Cargo ship. MMSI: 259496000.

Date/timePositionNaut miles runAvg speedWind from/ knotsBaromVisibWave heightAir tempDewpointWater temp
2015-Jan-23 07:20N 70°30' E 022°47'810.9
2015-Jan-23 06:33N 70°33' E 023°10'9 9.3
2015-Jan-23 05:33N 70°37' E 023°36'5 4.5
2015-Jan-23 04:33N 70°32' E 023°33'6 5.8
2015-Jan-23 03:33N 70°38' E 023°29'4 4.0
2015-Jan-23 02:33N 70°34' E 023°24'3 2.5
2015-Jan-23 01:33N 70°33' E 023°17'3 2.9
2015-Jan-23 00:33N 70°33' E 023°08'96 3.7
2015-Jan-21 22:34N 69°44' E 019°05'0 9.4
2015-Jan-21 22:33N 69°44' E 019°05'3 3.4
2015-Jan-21 21:33N 69°41' E 019°01'10 9.4
2015-Jan-21 20:32N 69°33' E 018°45'  
2015-Jan-18 03:32N 69°37' E 018°55'9810.9
2015-Jan-17 18:33N 70°31' E 022°57'1111.2
2015-Jan-17 17:33N 70°39' E 023°21'  
2015-Jan-15 06:33N 70°43' E 023°35'1110.4
2015-Jan-15 05:32N 70°32' E 023°33'4 4.2
2015-Jan-15 04:33N 70°36' E 023°35'8 7.7
2015-Jan-15 03:33N 70°33' E 023°14'2 2.3
2015-Jan-15 02:31N 70°33' E 023°07'1310.7
2015-Jan-15 01:18N 70°28' E 022°31'81 4.3
2015-Jan-14 06:26N 69°45' E 019°08'1010.9
2015-Jan-14 05:33N 69°37' E 018°55'  

Dump ship's entire track history